sensor_id;sensor_type;location;lat;lon;timestamp;P1;durP1;ratioP1;P2;durP2;ratioP2
8652;SDS011;4364;52.426;9.424;2023-12-04T00:01:12;20.57;;;11.23;;
8652;SDS011;4364;52.426;9.424;2023-12-04T00:03:38;21.93;;;12.33;;
8652;SDS011;4364;52.426;9.424;2023-12-04T00:06:06;21.93;;;11.90;;
8652;SDS011;4364;52.426;9.424;2023-12-04T00:08:32;19.83;;;11.60;;
8652;SDS011;4364;52.426;9.424;2023-12-04T00:10:59;24.57;;;13.03;;
8652;SDS011;4364;52.426;9.424;2023-12-04T00:13:26;20.70;;;11.90;;
8652;SDS011;4364;52.426;9.424;2023-12-04T00:15:53;22.17;;;11.97;;
8652;SDS011;4364;52.426;9.424;2023-12-04T00:18:19;23.77;;;13.10;;
8652;SDS011;4364;52.426;9.424;2023-12-04T00:20:46;23.57;;;12.73;;
8652;SDS011;4364;52.426;9.424;2023-12-04T00:23:12;22.67;;;11.97;;
8652;SDS011;4364;52.426;9.424;2023-12-04T00:25:39;22.27;;;11.50;;
8652;SDS011;4364;52.426;9.424;2023-12-04T00:28:05;21.60;;;12.43;;
8652;SDS011;4364;52.426;9.424;2023-12-04T00:30:32;19.23;;;11.20;;
8652;SDS011;4364;52.426;9.424;2023-12-04T00:32:58;22.27;;;12.60;;
8652;SDS011;4364;52.426;9.424;2023-12-04T00:35:25;21.93;;;11.77;;
8652;SDS011;4364;52.426;9.424;2023-12-04T00:37:52;23.37;;;12.23;;
8652;SDS011;4364;52.426;9.424;2023-12-04T00:40:19;24.73;;;13.33;;
8652;SDS011;4364;52.426;9.424;2023-12-04T00:42:45;23.10;;;12.33;;
8652;SDS011;4364;52.426;9.424;2023-12-04T00:45:12;21.30;;;11.63;;
8652;SDS011;4364;52.426;9.424;2023-12-04T00:47:38;22.80;;;12.20;;
8652;SDS011;4364;52.426;9.424;2023-12-04T00:50:05;22.13;;;11.87;;
8652;SDS011;4364;52.426;9.424;2023-12-04T00:52:32;20.73;;;11.53;;
8652;SDS011;4364;52.426;9.424;2023-12-04T00:55:00;19.00;;;10.60;;
8652;SDS011;4364;52.426;9.424;2023-12-04T00:57:26;19.63;;;10.87;;
8652;SDS011;4364;52.426;9.424;2023-12-04T00:59:53;20.07;;;11.10;;
8652;SDS011;4364;52.426;9.424;2023-12-04T01:02:19;21.27;;;11.10;;
8652;SDS011;4364;52.426;9.424;2023-12-04T01:04:45;19.13;;;10.83;;
8652;SDS011;4364;52.426;9.424;2023-12-04T01:07:12;19.40;;;10.47;;
8652;SDS011;4364;52.426;9.424;2023-12-04T01:09:39;18.20;;;10.27;;
8652;SDS011;4364;52.426;9.424;2023-12-04T01:12:05;19.67;;;10.80;;
8652;SDS011;4364;52.426;9.424;2023-12-04T01:14:32;18.80;;;9.73;;
8652;SDS011;4364;52.426;9.424;2023-12-04T01:16:59;18.17;;;9.67;;
8652;SDS011;4364;52.426;9.424;2023-12-04T01:19:25;16.80;;;9.87;;
8652;SDS011;4364;52.426;9.424;2023-12-04T01:21:52;17.73;;;10.20;;
8652;SDS011;4364;52.426;9.424;2023-12-04T01:24:19;17.27;;;9.10;;
8652;SDS011;4364;52.426;9.424;2023-12-04T01:26:46;15.07;;;8.77;;
8652;SDS011;4364;52.426;9.424;2023-12-04T01:29:12;17.13;;;9.33;;
8652;SDS011;4364;52.426;9.424;2023-12-04T01:31:39;16.63;;;8.97;;
8652;SDS011;4364;52.426;9.424;2023-12-04T01:34:05;16.97;;;9.60;;
8652;SDS011;4364;52.426;9.424;2023-12-04T01:36:32;18.10;;;9.50;;
8652;SDS011;4364;52.426;9.424;2023-12-04T01:38:58;15.87;;;9.00;;
8652;SDS011;4364;52.426;9.424;2023-12-04T01:41:25;18.13;;;9.67;;
8652;SDS011;4364;52.426;9.424;2023-12-04T01:43:51;16.43;;;9.17;;
8652;SDS011;4364;52.426;9.424;2023-12-04T01:46:18;17.73;;;9.20;;
8652;SDS011;4364;52.426;9.424;2023-12-04T01:48:45;17.10;;;9.23;;
8652;SDS011;4364;52.426;9.424;2023-12-04T01:51:13;15.80;;;9.30;;
8652;SDS011;4364;52.426;9.424;2023-12-04T01:53:40;18.20;;;9.70;;
8652;SDS011;4364;52.426;9.424;2023-12-04T01:56:08;16.17;;;8.97;;
8652;SDS011;4364;52.426;9.424;2023-12-04T01:58:35;16.50;;;8.77;;
8652;SDS011;4364;52.426;9.424;2023-12-04T02:01:03;16.63;;;9.40;;
8652;SDS011;4364;52.426;9.424;2023-12-04T02:03:31;16.80;;;9.33;;
8652;SDS011;4364;52.426;9.424;2023-12-04T02:05:58;16.03;;;9.57;;
8652;SDS011;4364;52.426;9.424;2023-12-04T02:08:26;18.87;;;10.83;;
8652;SDS011;4364;52.426;9.424;2023-12-04T02:10:53;19.37;;;10.60;;
8652;SDS011;4364;52.426;9.424;2023-12-04T02:13:20;17.10;;;9.87;;
8652;SDS011;4364;52.426;9.424;2023-12-04T02:15:46;19.40;;;10.53;;
8652;SDS011;4364;52.426;9.424;2023-12-04T02:18:19;21.07;;;11.13;;
8652;SDS011;4364;52.426;9.424;2023-12-04T02:20:46;22.20;;;11.37;;
8652;SDS011;4364;52.426;9.424;2023-12-04T02:23:13;17.80;;;10.07;;
8652;SDS011;4364;52.426;9.424;2023-12-04T02:25:39;18.77;;;10.73;;
8652;SDS011;4364;52.426;9.424;2023-12-04T02:28:06;20.40;;;10.13;;
8652;SDS011;4364;52.426;9.424;2023-12-04T02:30:35;17.53;;;10.07;;
8652;SDS011;4364;52.426;9.424;2023-12-04T02:33:04;19.43;;;10.20;;
8652;SDS011;4364;52.426;9.424;2023-12-04T02:35:33;19.97;;;9.90;;
8652;SDS011;4364;52.426;9.424;2023-12-04T02:38:01;19.13;;;9.77;;
8652;SDS011;4364;52.426;9.424;2023-12-04T02:40:28;17.53;;;9.27;;
8652;SDS011;4364;52.426;9.424;2023-12-04T02:42:55;17.53;;;9.83;;
8652;SDS011;4364;52.426;9.424;2023-12-04T02:45:22;16.57;;;9.47;;
8652;SDS011;4364;52.426;9.424;2023-12-04T02:47:49;19.10;;;10.13;;
8652;SDS011;4364;52.426;9.424;2023-12-04T02:50:15;19.17;;;9.97;;
8652;SDS011;4364;52.426;9.424;2023-12-04T02:52:42;17.43;;;9.90;;
8652;SDS011;4364;52.426;9.424;2023-12-04T02:55:08;17.70;;;9.87;;
8652;SDS011;4364;52.426;9.424;2023-12-04T02:57:35;17.27;;;9.30;;
8652;SDS011;4364;52.426;9.424;2023-12-04T03:00:02;19.00;;;10.37;;
8652;SDS011;4364;52.426;9.424;2023-12-04T03:02:30;16.20;;;9.77;;
8652;SDS011;4364;52.426;9.424;2023-12-04T03:04:57;17.13;;;9.63;;
8652;SDS011;4364;52.426;9.424;2023-12-04T03:07:24;21.70;;;9.63;;
8652;SDS011;4364;52.426;9.424;2023-12-04T03:09:50;17.43;;;9.03;;
8652;SDS011;4364;52.426;9.424;2023-12-04T03:12:17;17.97;;;9.37;;
8652;SDS011;4364;52.426;9.424;2023-12-04T03:14:44;18.40;;;9.83;;
8652;SDS011;4364;52.426;9.424;2023-12-04T03:17:10;18.60;;;9.57;;
8652;SDS011;4364;52.426;9.424;2023-12-04T03:19:37;18.50;;;9.70;;
8652;SDS011;4364;52.426;9.424;2023-12-04T03:22:04;19.83;;;10.33;;
8652;SDS011;4364;52.426;9.424;2023-12-04T03:24:30;16.77;;;9.57;;
8652;SDS011;4364;52.426;9.424;2023-12-04T03:26:57;16.30;;;9.53;;
8652;SDS011;4364;52.426;9.424;2023-12-04T03:29:23;17.43;;;9.63;;
8652;SDS011;4364;52.426;9.424;2023-12-04T03:31:50;16.80;;;8.87;;
8652;SDS011;4364;52.426;9.424;2023-12-04T03:34:17;18.80;;;10.10;;
8652;SDS011;4364;52.426;9.424;2023-12-04T03:36:44;17.60;;;9.60;;
8652;SDS011;4364;52.426;9.424;2023-12-04T03:39:10;18.33;;;10.03;;
8652;SDS011;4364;52.426;9.424;2023-12-04T03:41:37;17.93;;;9.73;;
8652;SDS011;4364;52.426;9.424;2023-12-04T03:44:03;17.97;;;9.87;;
8652;SDS011;4364;52.426;9.424;2023-12-04T03:46:30;17.47;;;9.60;;
8652;SDS011;4364;52.426;9.424;2023-12-04T03:48:56;16.77;;;9.57;;
8652;SDS011;4364;52.426;9.424;2023-12-04T03:51:23;16.10;;;9.03;;
8652;SDS011;4364;52.426;9.424;2023-12-04T03:53:49;16.70;;;9.23;;
8652;SDS011;4364;52.426;9.424;2023-12-04T03:56:16;16.43;;;9.33;;
8652;SDS011;4364;52.426;9.424;2023-12-04T03:58:43;19.27;;;9.53;;
8652;SDS011;4364;52.426;9.424;2023-12-04T04:01:09;18.03;;;9.17;;
8652;SDS011;4364;52.426;9.424;2023-12-04T04:03:36;14.40;;;8.77;;
8652;SDS011;4364;52.426;9.424;2023-12-04T04:06:02;16.07;;;8.43;;
8652;SDS011;4364;52.426;9.424;2023-12-04T04:08:29;15.23;;;8.97;;
8652;SDS011;4364;52.426;9.424;2023-12-04T04:10:55;16.00;;;8.23;;
8652;SDS011;4364;52.426;9.424;2023-12-04T04:13:22;16.23;;;9.13;;
8652;SDS011;4364;52.426;9.424;2023-12-04T04:15:49;17.00;;;9.63;;
8652;SDS011;4364;52.426;9.424;2023-12-04T04:18:15;15.17;;;8.83;;
8652;SDS011;4364;52.426;9.424;2023-12-04T04:20:42;16.07;;;8.73;;
8652;SDS011;4364;52.426;9.424;2023-12-04T04:23:08;15.53;;;8.60;;
8652;SDS011;4364;52.426;9.424;2023-12-04T04:25:35;18.97;;;9.47;;
8652;SDS011;4364;52.426;9.424;2023-12-04T04:28:01;15.63;;;7.83;;
8652;SDS011;4364;52.426;9.424;2023-12-04T04:30:28;15.57;;;8.97;;
8652;SDS011;4364;52.426;9.424;2023-12-04T04:32:54;13.37;;;7.60;;
8652;SDS011;4364;52.426;9.424;2023-12-04T04:35:21;15.00;;;8.17;;
8652;SDS011;4364;52.426;9.424;2023-12-04T04:37:47;15.57;;;8.40;;
8652;SDS011;4364;52.426;9.424;2023-12-04T04:40:17;14.33;;;8.30;;
8652;SDS011;4364;52.426;9.424;2023-12-04T04:42:44;14.30;;;8.00;;
8652;SDS011;4364;52.426;9.424;2023-12-04T04:45:10;18.27;;;9.87;;
8652;SDS011;4364;52.426;9.424;2023-12-04T04:47:37;14.77;;;8.23;;
8652;SDS011;4364;52.426;9.424;2023-12-04T04:50:03;19.23;;;9.97;;
8652;SDS011;4364;52.426;9.424;2023-12-04T04:52:30;19.00;;;11.40;;
8652;SDS011;4364;52.426;9.424;2023-12-04T04:54:58;20.77;;;10.97;;
8652;SDS011;4364;52.426;9.424;2023-12-04T04:57:24;20.97;;;11.60;;
8652;SDS011;4364;52.426;9.424;2023-12-04T04:59:51;23.10;;;12.13;;
8652;SDS011;4364;52.426;9.424;2023-12-04T05:02:18;22.67;;;12.20;;
8652;SDS011;4364;52.426;9.424;2023-12-04T05:04:44;20.53;;;11.40;;
8652;SDS011;4364;52.426;9.424;2023-12-04T05:07:11;21.70;;;12.00;;
8652;SDS011;4364;52.426;9.424;2023-12-04T05:09:37;20.60;;;11.20;;
8652;SDS011;4364;52.426;9.424;2023-12-04T05:12:04;22.50;;;12.00;;
8652;SDS011;4364;52.426;9.424;2023-12-04T05:14:30;20.70;;;11.77;;
8652;SDS011;4364;52.426;9.424;2023-12-04T05:16:57;19.20;;;10.30;;
8652;SDS011;4364;52.426;9.424;2023-12-04T05:19:23;19.17;;;10.50;;
8652;SDS011;4364;52.426;9.424;2023-12-04T05:21:50;19.20;;;10.70;;
8652;SDS011;4364;52.426;9.424;2023-12-04T05:24:17;18.93;;;10.40;;
8652;SDS011;4364;52.426;9.424;2023-12-04T05:26:43;19.70;;;11.30;;
8652;SDS011;4364;52.426;9.424;2023-12-04T05:29:10;19.47;;;10.77;;
8652;SDS011;4364;52.426;9.424;2023-12-04T05:31:36;17.43;;;9.77;;
8652;SDS011;4364;52.426;9.424;2023-12-04T05:34:03;19.20;;;10.90;;
8652;SDS011;4364;52.426;9.424;2023-12-04T05:36:29;18.60;;;11.07;;
8652;SDS011;4364;52.426;9.424;2023-12-04T05:38:56;19.87;;;11.53;;
8652;SDS011;4364;52.426;9.424;2023-12-04T05:41:27;17.80;;;10.23;;
8652;SDS011;4364;52.426;9.424;2023-12-04T05:43:54;21.43;;;11.63;;
8652;SDS011;4364;52.426;9.424;2023-12-04T05:46:20;24.77;;;13.03;;
8652;SDS011;4364;52.426;9.424;2023-12-04T05:48:47;21.73;;;11.40;;
8652;SDS011;4364;52.426;9.424;2023-12-04T05:51:14;18.20;;;10.93;;
8652;SDS011;4364;52.426;9.424;2023-12-04T05:53:41;20.17;;;11.47;;
8652;SDS011;4364;52.426;9.424;2023-12-04T05:56:08;22.97;;;11.73;;
8652;SDS011;4364;52.426;9.424;2023-12-04T05:58:35;21.47;;;12.03;;
8652;SDS011;4364;52.426;9.424;2023-12-04T06:01:01;21.50;;;12.27;;
8652;SDS011;4364;52.426;9.424;2023-12-04T06:03:28;21.23;;;11.57;;
8652;SDS011;4364;52.426;9.424;2023-12-04T06:05:55;21.23;;;11.00;;
8652;SDS011;4364;52.426;9.424;2023-12-04T06:08:24;19.23;;;10.83;;
8652;SDS011;4364;52.426;9.424;2023-12-04T06:10:51;20.37;;;11.57;;
8652;SDS011;4364;52.426;9.424;2023-12-04T06:13:18;20.13;;;10.77;;
8652;SDS011;4364;52.426;9.424;2023-12-04T06:15:45;19.27;;;10.97;;
8652;SDS011;4364;52.426;9.424;2023-12-04T06:18:11;19.27;;;11.53;;
8652;SDS011;4364;52.426;9.424;2023-12-04T06:20:38;19.60;;;10.70;;
8652;SDS011;4364;52.426;9.424;2023-12-04T06:23:04;18.73;;;10.83;;
8652;SDS011;4364;52.426;9.424;2023-12-04T06:25:31;21.03;;;11.43;;
8652;SDS011;4364;52.426;9.424;2023-12-04T06:27:58;20.73;;;10.67;;
8652;SDS011;4364;52.426;9.424;2023-12-04T06:30:24;21.83;;;11.00;;
8652;SDS011;4364;52.426;9.424;2023-12-04T06:32:51;19.23;;;11.07;;
8652;SDS011;4364;52.426;9.424;2023-12-04T06:35:19;17.73;;;9.83;;
8652;SDS011;4364;52.426;9.424;2023-12-04T06:37:47;18.57;;;10.37;;
8652;SDS011;4364;52.426;9.424;2023-12-04T06:40:14;19.93;;;10.60;;
8652;SDS011;4364;52.426;9.424;2023-12-04T06:42:41;16.50;;;9.57;;
8652;SDS011;4364;52.426;9.424;2023-12-04T06:45:08;17.00;;;9.60;;
8652;SDS011;4364;52.426;9.424;2023-12-04T06:47:35;16.77;;;8.77;;
8652;SDS011;4364;52.426;9.424;2023-12-04T06:50:03;17.23;;;9.97;;
8652;SDS011;4364;52.426;9.424;2023-12-04T06:52:29;16.37;;;9.30;;
8652;SDS011;4364;52.426;9.424;2023-12-04T06:54:56;15.37;;;9.10;;
8652;SDS011;4364;52.426;9.424;2023-12-04T06:57:23;15.03;;;9.53;;
8652;SDS011;4364;52.426;9.424;2023-12-04T06:59:49;17.27;;;9.77;;
8652;SDS011;4364;52.426;9.424;2023-12-04T07:02:16;14.93;;;8.50;;
8652;SDS011;4364;52.426;9.424;2023-12-04T07:04:42;13.80;;;8.87;;
8652;SDS011;4364;52.426;9.424;2023-12-04T07:07:09;14.73;;;8.73;;
8652;SDS011;4364;52.426;9.424;2023-12-04T07:09:35;14.43;;;8.50;;
8652;SDS011;4364;52.426;9.424;2023-12-04T07:12:02;15.13;;;8.50;;
8652;SDS011;4364;52.426;9.424;2023-12-04T07:14:29;15.00;;;8.67;;
8652;SDS011;4364;52.426;9.424;2023-12-04T07:16:55;15.70;;;8.80;;
8652;SDS011;4364;52.426;9.424;2023-12-04T07:19:22;16.33;;;9.03;;
8652;SDS011;4364;52.426;9.424;2023-12-04T07:21:49;15.90;;;8.70;;
8652;SDS011;4364;52.426;9.424;2023-12-04T07:24:16;15.03;;;9.17;;
8652;SDS011;4364;52.426;9.424;2023-12-04T07:26:42;13.57;;;8.67;;
8652;SDS011;4364;52.426;9.424;2023-12-04T07:29:09;14.73;;;8.93;;
8652;SDS011;4364;52.426;9.424;2023-12-04T07:31:35;14.47;;;8.83;;
8652;SDS011;4364;52.426;9.424;2023-12-04T07:34:02;16.07;;;9.10;;
8652;SDS011;4364;52.426;9.424;2023-12-04T07:36:29;15.23;;;9.47;;
8652;SDS011;4364;52.426;9.424;2023-12-04T07:38:55;14.10;;;9.30;;
8652;SDS011;4364;52.426;9.424;2023-12-04T07:41:22;14.80;;;9.17;;
8652;SDS011;4364;52.426;9.424;2023-12-04T07:43:48;17.33;;;9.40;;
8652;SDS011;4364;52.426;9.424;2023-12-04T07:46:15;15.50;;;8.60;;
8652;SDS011;4364;52.426;9.424;2023-12-04T07:48:42;14.40;;;8.77;;
8652;SDS011;4364;52.426;9.424;2023-12-04T07:51:10;14.77;;;8.83;;
8652;SDS011;4364;52.426;9.424;2023-12-04T07:53:37;12.60;;;7.73;;
8652;SDS011;4364;52.426;9.424;2023-12-04T07:56:03;15.23;;;8.67;;
8652;SDS011;4364;52.426;9.424;2023-12-04T07:58:31;13.90;;;8.23;;
8652;SDS011;4364;52.426;9.424;2023-12-04T08:00:58;13.87;;;7.90;;
8652;SDS011;4364;52.426;9.424;2023-12-04T08:03:25;14.23;;;8.40;;
8652;SDS011;4364;52.426;9.424;2023-12-04T08:05:53;13.23;;;8.00;;
8652;SDS011;4364;52.426;9.424;2023-12-04T08:08:20;12.97;;;8.23;;
8652;SDS011;4364;52.426;9.424;2023-12-04T08:10:47;12.70;;;8.43;;
8652;SDS011;4364;52.426;9.424;2023-12-04T08:13:14;14.03;;;8.10;;
8652;SDS011;4364;52.426;9.424;2023-12-04T08:15:41;14.30;;;8.17;;
8652;SDS011;4364;52.426;9.424;2023-12-04T08:18:07;15.90;;;9.00;;
8652;SDS011;4364;52.426;9.424;2023-12-04T08:20:34;14.23;;;8.17;;
8652;SDS011;4364;52.426;9.424;2023-12-04T08:23:06;16.53;;;8.80;;
8652;SDS011;4364;52.426;9.424;2023-12-04T08:25:33;14.20;;;8.50;;
8652;SDS011;4364;52.426;9.424;2023-12-04T08:27:59;12.70;;;8.10;;
8652;SDS011;4364;52.426;9.424;2023-12-04T08:30:29;13.37;;;7.90;;
8652;SDS011;4364;52.426;9.424;2023-12-04T08:32:56;11.80;;;7.73;;
8652;SDS011;4364;52.426;9.424;2023-12-04T08:35:22;15.90;;;9.03;;
8652;SDS011;4364;52.426;9.424;2023-12-04T08:37:49;14.03;;;7.50;;
8652;SDS011;4364;52.426;9.424;2023-12-04T08:40:16;14.37;;;8.77;;
8652;SDS011;4364;52.426;9.424;2023-12-04T08:42:43;13.27;;;7.90;;
8652;SDS011;4364;52.426;9.424;2023-12-04T08:45:11;13.43;;;7.90;;
8652;SDS011;4364;52.426;9.424;2023-12-04T08:47:37;12.63;;;7.60;;
8652;SDS011;4364;52.426;9.424;2023-12-04T08:50:04;13.13;;;7.80;;
8652;SDS011;4364;52.426;9.424;2023-12-04T08:52:32;11.77;;;7.70;;
8652;SDS011;4364;52.426;9.424;2023-12-04T08:55:00;12.60;;;7.40;;
8652;SDS011;4364;52.426;9.424;2023-12-04T08:57:27;11.43;;;7.30;;
8652;SDS011;4364;52.426;9.424;2023-12-04T08:59:53;12.67;;;7.67;;
8652;SDS011;4364;52.426;9.424;2023-12-04T09:02:20;11.47;;;7.30;;
8652;SDS011;4364;52.426;9.424;2023-12-04T09:04:47;12.97;;;7.70;;
8652;SDS011;4364;52.426;9.424;2023-12-04T09:07:15;11.90;;;7.23;;
8652;SDS011;4364;52.426;9.424;2023-12-04T09:09:44;11.27;;;7.43;;
8652;SDS011;4364;52.426;9.424;2023-12-04T09:12:12;13.43;;;8.03;;
8652;SDS011;4364;52.426;9.424;2023-12-04T09:14:39;13.57;;;7.93;;
8652;SDS011;4364;52.426;9.424;2023-12-04T09:17:06;12.60;;;7.57;;
8652;SDS011;4364;52.426;9.424;2023-12-04T09:19:32;12.53;;;7.60;;
8652;SDS011;4364;52.426;9.424;2023-12-04T09:21:59;13.13;;;7.77;;
8652;SDS011;4364;52.426;9.424;2023-12-04T09:24:38;10.93;;;6.97;;
8652;SDS011;4364;52.426;9.424;2023-12-04T09:27:04;10.97;;;7.37;;
8652;SDS011;4364;52.426;9.424;2023-12-04T09:29:33;11.43;;;7.37;;
8652;SDS011;4364;52.426;9.424;2023-12-04T09:32:00;12.63;;;7.80;;
8652;SDS011;4364;52.426;9.424;2023-12-04T09:34:26;14.57;;;8.30;;
8652;SDS011;4364;52.426;9.424;2023-12-04T09:36:54;15.33;;;8.73;;
8652;SDS011;4364;52.426;9.424;2023-12-04T09:39:26;15.00;;;9.30;;
8652;SDS011;4364;52.426;9.424;2023-12-04T09:41:53;12.50;;;8.67;;
8652;SDS011;4364;52.426;9.424;2023-12-04T09:44:21;12.50;;;8.20;;
8652;SDS011;4364;52.426;9.424;2023-12-04T09:46:50;13.67;;;8.20;;
8652;SDS011;4364;52.426;9.424;2023-12-04T09:49:18;13.40;;;8.03;;
8652;SDS011;4364;52.426;9.424;2023-12-04T09:51:45;13.67;;;8.20;;
8652;SDS011;4364;52.426;9.424;2023-12-04T09:54:12;12.73;;;8.00;;
8652;SDS011;4364;52.426;9.424;2023-12-04T09:56:42;17.73;;;8.93;;
8652;SDS011;4364;52.426;9.424;2023-12-04T09:59:09;12.70;;;8.20;;
8652;SDS011;4364;52.426;9.424;2023-12-04T10:01:40;14.23;;;8.60;;
8652;SDS011;4364;52.426;9.424;2023-12-04T10:04:06;14.23;;;8.73;;
8652;SDS011;4364;52.426;9.424;2023-12-04T10:06:34;13.33;;;8.77;;
8652;SDS011;4364;52.426;9.424;2023-12-04T10:09:03;15.27;;;9.27;;
8652;SDS011;4364;52.426;9.424;2023-12-04T10:11:29;14.60;;;8.53;;
8652;SDS011;4364;52.426;9.424;2023-12-04T10:13:56;18.03;;;10.37;;
8652;SDS011;4364;52.426;9.424;2023-12-04T10:16:32;14.60;;;8.67;;
8652;SDS011;4364;52.426;9.424;2023-12-04T10:19:16;12.97;;;8.77;;
8652;SDS011;4364;52.426;9.424;2023-12-04T10:21:44;14.07;;;8.87;;
8652;SDS011;4364;52.426;9.424;2023-12-04T10:24:12;15.83;;;8.00;;
8652;SDS011;4364;52.426;9.424;2023-12-04T10:26:52;13.40;;;8.50;;
8652;SDS011;4364;52.426;9.424;2023-12-04T10:29:19;14.67;;;8.83;;
8652;SDS011;4364;52.426;9.424;2023-12-04T10:31:45;15.13;;;8.57;;
8652;SDS011;4364;52.426;9.424;2023-12-04T10:34:14;13.50;;;8.30;;
8652;SDS011;4364;52.426;9.424;2023-12-04T10:36:41;11.90;;;8.27;;
8652;SDS011;4364;52.426;9.424;2023-12-04T10:39:07;13.67;;;8.17;;
8652;SDS011;4364;52.426;9.424;2023-12-04T10:41:34;13.53;;;8.53;;
8652;SDS011;4364;52.426;9.424;2023-12-04T10:44:01;12.97;;;8.60;;
8652;SDS011;4364;52.426;9.424;2023-12-04T10:46:36;17.20;;;9.50;;
8652;SDS011;4364;52.426;9.424;2023-12-04T10:49:04;15.57;;;9.13;;
8652;SDS011;4364;52.426;9.424;2023-12-04T10:51:32;15.20;;;9.90;;
8652;SDS011;4364;52.426;9.424;2023-12-04T10:54:00;15.20;;;9.73;;
8652;SDS011;4364;52.426;9.424;2023-12-04T10:56:35;16.40;;;9.70;;
8652;SDS011;4364;52.426;9.424;2023-12-04T10:59:05;15.10;;;9.70;;
8652;SDS011;4364;52.426;9.424;2023-12-04T11:01:36;16.10;;;10.50;;
8652;SDS011;4364;52.426;9.424;2023-12-04T11:04:04;17.07;;;10.77;;
8652;SDS011;4364;52.426;9.424;2023-12-04T11:06:37;16.37;;;10.27;;
8652;SDS011;4364;52.426;9.424;2023-12-04T11:09:06;17.97;;;10.13;;
8652;SDS011;4364;52.426;9.424;2023-12-04T11:11:35;15.80;;;10.23;;
8652;SDS011;4364;52.426;9.424;2023-12-04T11:14:07;16.67;;;9.30;;
8652;SDS011;4364;52.426;9.424;2023-12-04T11:16:51;19.33;;;11.10;;
8652;SDS011;4364;52.426;9.424;2023-12-04T11:19:26;16.77;;;9.93;;
8652;SDS011;4364;52.426;9.424;2023-12-04T11:21:56;18.03;;;10.00;;
8652;SDS011;4364;52.426;9.424;2023-12-04T11:24:25;16.80;;;10.53;;
8652;SDS011;4364;52.426;9.424;2023-12-04T11:26:51;16.67;;;10.07;;
8652;SDS011;4364;52.426;9.424;2023-12-04T11:29:19;17.43;;;10.43;;
8652;SDS011;4364;52.426;9.424;2023-12-04T11:31:47;16.37;;;9.80;;
8652;SDS011;4364;52.426;9.424;2023-12-04T11:34:14;17.60;;;10.57;;
8652;SDS011;4364;52.426;9.424;2023-12-04T11:36:41;17.07;;;9.97;;
8652;SDS011;4364;52.426;9.424;2023-12-04T11:39:10;14.83;;;9.93;;
8652;SDS011;4364;52.426;9.424;2023-12-04T11:41:37;16.27;;;9.60;;
8652;SDS011;4364;52.426;9.424;2023-12-04T11:44:11;15.30;;;9.50;;
8652;SDS011;4364;52.426;9.424;2023-12-04T11:47:03;16.57;;;10.00;;
8652;SDS011;4364;52.426;9.424;2023-12-04T11:49:32;16.10;;;10.33;;
8652;SDS011;4364;52.426;9.424;2023-12-04T11:52:00;12.97;;;8.70;;
8652;SDS011;4364;52.426;9.424;2023-12-04T11:54:54;17.20;;;10.33;;
8652;SDS011;4364;52.426;9.424;2023-12-04T11:57:24;17.57;;;9.83;;
8652;SDS011;4364;52.426;9.424;2023-12-04T11:59:52;16.10;;;9.70;;
8652;SDS011;4364;52.426;9.424;2023-12-04T12:02:38;16.40;;;9.77;;
8652;SDS011;4364;52.426;9.424;2023-12-04T12:05:27;13.13;;;8.70;;
8652;SDS011;4364;52.426;9.424;2023-12-04T12:07:54;16.77;;;9.53;;
8652;SDS011;4364;52.426;9.424;2023-12-04T12:10:21;16.17;;;9.77;;
8652;SDS011;4364;52.426;9.424;2023-12-04T12:12:48;15.67;;;9.67;;
8652;SDS011;4364;52.426;9.424;2023-12-04T12:15:15;15.00;;;9.87;;
8652;SDS011;4364;52.426;9.424;2023-12-04T12:17:41;17.97;;;9.60;;
8652;SDS011;4364;52.426;9.424;2023-12-04T12:20:08;16.50;;;9.20;;
8652;SDS011;4364;52.426;9.424;2023-12-04T12:22:37;16.60;;;9.53;;
8652;SDS011;4364;52.426;9.424;2023-12-04T12:25:07;14.33;;;9.23;;
8652;SDS011;4364;52.426;9.424;2023-12-04T12:27:34;17.07;;;9.80;;
8652;SDS011;4364;52.426;9.424;2023-12-04T12:30:01;16.33;;;10.40;;
8652;SDS011;4364;52.426;9.424;2023-12-04T12:32:33;15.77;;;9.53;;
8652;SDS011;4364;52.426;9.424;2023-12-04T12:35:00;14.70;;;9.53;;
8652;SDS011;4364;52.426;9.424;2023-12-04T12:37:28;16.33;;;9.53;;
8652;SDS011;4364;52.426;9.424;2023-12-04T12:39:54;17.53;;;10.20;;
8652;SDS011;4364;52.426;9.424;2023-12-04T12:42:25;14.53;;;9.57;;
8652;SDS011;4364;52.426;9.424;2023-12-04T12:44:52;16.73;;;9.80;;
8652;SDS011;4364;52.426;9.424;2023-12-04T12:47:19;16.20;;;9.43;;
8652;SDS011;4364;52.426;9.424;2023-12-04T12:49:46;16.00;;;9.63;;
8652;SDS011;4364;52.426;9.424;2023-12-04T12:52:13;15.90;;;9.60;;
8652;SDS011;4364;52.426;9.424;2023-12-04T12:54:40;19.10;;;9.83;;
8652;SDS011;4364;52.426;9.424;2023-12-04T12:57:07;17.97;;;9.40;;
8652;SDS011;4364;52.426;9.424;2023-12-04T12:59:35;14.27;;;8.80;;
8652;SDS011;4364;52.426;9.424;2023-12-04T13:02:03;17.07;;;9.73;;
8652;SDS011;4364;52.426;9.424;2023-12-04T13:04:33;15.17;;;9.57;;
8652;SDS011;4364;52.426;9.424;2023-12-04T13:07:01;13.43;;;8.43;;
8652;SDS011;4364;52.426;9.424;2023-12-04T13:09:30;14.53;;;8.30;;
8652;SDS011;4364;52.426;9.424;2023-12-04T13:11:56;14.93;;;9.17;;
8652;SDS011;4364;52.426;9.424;2023-12-04T13:14:23;13.90;;;8.07;;
8652;SDS011;4364;52.426;9.424;2023-12-04T13:16:49;14.70;;;9.23;;
8652;SDS011;4364;52.426;9.424;2023-12-04T13:19:16;14.23;;;8.97;;
8652;SDS011;4364;52.426;9.424;2023-12-04T13:21:44;13.00;;;8.67;;
8652;SDS011;4364;52.426;9.424;2023-12-04T13:24:10;12.87;;;7.80;;
8652;SDS011;4364;52.426;9.424;2023-12-04T13:26:37;13.53;;;8.77;;
8652;SDS011;4364;52.426;9.424;2023-12-04T13:29:03;13.97;;;8.40;;
8652;SDS011;4364;52.426;9.424;2023-12-04T13:31:30;15.00;;;9.40;;
8652;SDS011;4364;52.426;9.424;2023-12-04T13:33:59;15.67;;;8.77;;
8652;SDS011;4364;52.426;9.424;2023-12-04T13:36:25;15.13;;;8.70;;
8652;SDS011;4364;52.426;9.424;2023-12-04T13:38:53;14.97;;;9.33;;
8652;SDS011;4364;52.426;9.424;2023-12-04T13:41:20;14.73;;;8.80;;
8652;SDS011;4364;52.426;9.424;2023-12-04T13:44:05;16.33;;;8.10;;
8652;SDS011;4364;52.426;9.424;2023-12-04T13:46:31;13.57;;;8.03;;
8652;SDS011;4364;52.426;9.424;2023-12-04T13:48:58;14.73;;;8.50;;
8652;SDS011;4364;52.426;9.424;2023-12-04T13:51:25;14.53;;;8.93;;
8652;SDS011;4364;52.426;9.424;2023-12-04T13:53:53;14.37;;;8.13;;
8652;SDS011;4364;52.426;9.424;2023-12-04T13:56:27;12.07;;;7.60;;
8652;SDS011;4364;52.426;9.424;2023-12-04T13:59:15;18.50;;;8.27;;
8652;SDS011;4364;52.426;9.424;2023-12-04T14:01:46;15.33;;;8.60;;
8652;SDS011;4364;52.426;9.424;2023-12-04T14:04:13;11.73;;;7.57;;
8652;SDS011;4364;52.426;9.424;2023-12-04T14:06:40;14.17;;;8.60;;
8652;SDS011;4364;52.426;9.424;2023-12-04T14:09:06;13.23;;;8.10;;
8652;SDS011;4364;52.426;9.424;2023-12-04T14:11:39;13.20;;;7.90;;
8652;SDS011;4364;52.426;9.424;2023-12-04T14:14:06;15.10;;;8.60;;
8652;SDS011;4364;52.426;9.424;2023-12-04T14:16:33;11.70;;;7.43;;
8652;SDS011;4364;52.426;9.424;2023-12-04T14:19:00;14.60;;;8.20;;
8652;SDS011;4364;52.426;9.424;2023-12-04T14:21:27;14.50;;;8.30;;
8652;SDS011;4364;52.426;9.424;2023-12-04T14:23:54;14.50;;;8.13;;
8652;SDS011;4364;52.426;9.424;2023-12-04T14:26:20;12.93;;;7.70;;
8652;SDS011;4364;52.426;9.424;2023-12-04T14:28:47;15.87;;;8.57;;
8652;SDS011;4364;52.426;9.424;2023-12-04T14:31:13;14.57;;;7.90;;
8652;SDS011;4364;52.426;9.424;2023-12-04T14:33:40;13.87;;;8.63;;
8652;SDS011;4364;52.426;9.424;2023-12-04T14:36:09;13.20;;;8.40;;
8652;SDS011;4364;52.426;9.424;2023-12-04T14:38:38;14.27;;;8.73;;
8652;SDS011;4364;52.426;9.424;2023-12-04T14:41:05;16.57;;;9.43;;
8652;SDS011;4364;52.426;9.424;2023-12-04T14:43:32;15.87;;;8.40;;
8652;SDS011;4364;52.426;9.424;2023-12-04T14:46:00;13.37;;;8.13;;
8652;SDS011;4364;52.426;9.424;2023-12-04T14:48:28;14.03;;;8.67;;
8652;SDS011;4364;52.426;9.424;2023-12-04T14:50:55;13.13;;;7.97;;
8652;SDS011;4364;52.426;9.424;2023-12-04T14:53:26;13.37;;;8.00;;
8652;SDS011;4364;52.426;9.424;2023-12-04T14:55:59;13.83;;;8.27;;
8652;SDS011;4364;52.426;9.424;2023-12-04T14:59:01;11.87;;;7.17;;
8652;SDS011;4364;52.426;9.424;2023-12-04T15:01:47;12.87;;;7.30;;